Bertopolis, Brazil
Current Conditions -  °F | °C
As of 3:00 PM on Monday 20 Oct 2014 (Local Time) from SBPS Reporting Station
Few Clouds Few Clouds  
Wind Chill: 28°   Ceiling: Unl
Heat Index: 30°   Visibility: 6mi
Dew Point: 21°   Wind: 22mph
Humidity: 66%   Direction: 60°ENE
Pressure: 29.85"   Gusts: NA
Location:  17.06°S, 40.57°W
Report Text: SBPS 201800Z 06019KT 9999 FEW020 28/21 Q1011
Loading
Personal Weather Stations






























Interactive Weather Map
Tropical Storm Tracking
New forecast layout! Learn more

10-Day Weather Forecast

Advertisements
Track Severe Weather on mobile